sensor_id;sensor_type;location;lat;lon;timestamp;P1;durP1;ratioP1;P2;durP2;ratioP2
25824;SDS011;13658;44.534;18.694;2022-12-18T00:01:17;22.77;;;12.05;;
25824;SDS011;13658;44.534;18.694;2022-12-18T00:03:46;20.17;;;10.52;;
25824;SDS011;13658;44.534;18.694;2022-12-18T00:06:13;22.17;;;12.05;;
25824;SDS011;13658;44.534;18.694;2022-12-18T00:08:40;19.42;;;11.18;;
25824;SDS011;13658;44.534;18.694;2022-12-18T00:11:07;16.85;;;10.18;;
25824;SDS011;13658;44.534;18.694;2022-12-18T00:13:35;19.88;;;10.07;;
25824;SDS011;13658;44.534;18.694;2022-12-18T00:16:02;18.25;;;9.80;;
25824;SDS011;13658;44.534;18.694;2022-12-18T00:18:29;15.00;;;8.68;;
25824;SDS011;13658;44.534;18.694;2022-12-18T00:20:57;17.73;;;9.23;;
25824;SDS011;13658;44.534;18.694;2022-12-18T00:23:29;17.17;;;8.98;;
25824;SDS011;13658;44.534;18.694;2022-12-18T00:25:59;16.77;;;8.95;;
25824;SDS011;13658;44.534;18.694;2022-12-18T00:28:29;16.98;;;9.30;;
25824;SDS011;13658;44.534;18.694;2022-12-18T00:31:00;16.13;;;9.10;;
25824;SDS011;13658;44.534;18.694;2022-12-18T00:33:46;15.60;;;8.85;;
25824;SDS011;13658;44.534;18.694;2022-12-18T00:36:13;15.55;;;8.70;;
25824;SDS011;13658;44.534;18.694;2022-12-18T00:38:43;14.85;;;7.93;;
25824;SDS011;13658;44.534;18.694;2022-12-18T00:41:10;16.15;;;8.45;;
25824;SDS011;13658;44.534;18.694;2022-12-18T00:43:37;15.43;;;8.70;;
25824;SDS011;13658;44.534;18.694;2022-12-18T00:46:04;15.93;;;8.63;;
25824;SDS011;13658;44.534;18.694;2022-12-18T00:48:30;15.13;;;7.97;;
25824;SDS011;13658;44.534;18.694;2022-12-18T00:50:57;14.57;;;7.72;;
25824;SDS011;13658;44.534;18.694;2022-12-18T00:53:23;15.95;;;8.30;;
25824;SDS011;13658;44.534;18.694;2022-12-18T00:55:49;16.83;;;8.30;;
25824;SDS011;13658;44.534;18.694;2022-12-18T00:58:15;16.75;;;8.43;;
25824;SDS011;13658;44.534;18.694;2022-12-18T01:00:42;15.73;;;8.65;;
25824;SDS011;13658;44.534;18.694;2022-12-18T01:03:10;19.90;;;9.15;;
25824;SDS011;13658;44.534;18.694;2022-12-18T01:05:39;16.10;;;8.55;;
25824;SDS011;13658;44.534;18.694;2022-12-18T01:08:06;18.55;;;9.27;;
25824;SDS011;13658;44.534;18.694;2022-12-18T01:10:32;20.90;;;10.50;;
25824;SDS011;13658;44.534;18.694;2022-12-18T01:12:58;18.77;;;10.48;;
25824;SDS011;13658;44.534;18.694;2022-12-18T01:15:24;15.52;;;8.48;;
25824;SDS011;13658;44.534;18.694;2022-12-18T01:17:51;21.10;;;10.98;;
25824;SDS011;13658;44.534;18.694;2022-12-18T01:20:18;29.40;;;11.15;;
25824;SDS011;13658;44.534;18.694;2022-12-18T01:22:44;19.88;;;10.43;;
25824;SDS011;13658;44.534;18.694;2022-12-18T01:25:10;21.85;;;11.25;;
25824;SDS011;13658;44.534;18.694;2022-12-18T01:27:36;26.17;;;12.63;;
25824;SDS011;13658;44.534;18.694;2022-12-18T01:30:02;24.35;;;11.82;;
25824;SDS011;13658;44.534;18.694;2022-12-18T01:32:30;23.30;;;11.80;;
25824;SDS011;13658;44.534;18.694;2022-12-18T01:34:56;25.27;;;12.35;;
25824;SDS011;13658;44.534;18.694;2022-12-18T01:37:22;25.33;;;12.77;;
25824;SDS011;13658;44.534;18.694;2022-12-18T01:39:48;25.30;;;12.80;;
25824;SDS011;13658;44.534;18.694;2022-12-18T01:42:15;23.10;;;12.93;;
25824;SDS011;13658;44.534;18.694;2022-12-18T01:44:55;22.05;;;11.65;;
25824;SDS011;13658;44.534;18.694;2022-12-18T01:47:26;23.80;;;11.32;;
25824;SDS011;13658;44.534;18.694;2022-12-18T01:49:56;22.85;;;11.00;;
25824;SDS011;13658;44.534;18.694;2022-12-18T01:52:24;22.10;;;11.57;;
25824;SDS011;13658;44.534;18.694;2022-12-18T01:54:53;23.25;;;11.55;;
25824;SDS011;13658;44.534;18.694;2022-12-18T01:57:20;24.60;;;12.15;;
25824;SDS011;13658;44.534;18.694;2022-12-18T01:59:48;20.48;;;11.68;;
25824;SDS011;13658;44.534;18.694;2022-12-18T02:02:18;26.40;;;13.10;;
25824;SDS011;13658;44.534;18.694;2022-12-18T02:04:45;27.25;;;12.93;;
25824;SDS011;13658;44.534;18.694;2022-12-18T02:12:23;27.40;;;14.43;;
25824;SDS011;13658;44.534;18.694;2022-12-18T02:17:43;27.20;;;14.20;;
25824;SDS011;13658;44.534;18.694;2022-12-18T02:29:07;33.83;;;17.70;;
25824;SDS011;13658;44.534;18.694;2022-12-18T02:31:36;35.58;;;17.67;;
25824;SDS011;13658;44.534;18.694;2022-12-18T02:34:07;36.95;;;18.48;;
25824;SDS011;13658;44.534;18.694;2022-12-18T02:36:38;45.80;;;21.85;;
25824;SDS011;13658;44.534;18.694;2022-12-18T02:39:07;43.38;;;20.77;;
25824;SDS011;13658;44.534;18.694;2022-12-18T02:41:35;46.25;;;22.33;;
25824;SDS011;13658;44.534;18.694;2022-12-18T02:44:07;42.30;;;20.40;;
25824;SDS011;13658;44.534;18.694;2022-12-18T02:57:25;40.80;;;20.17;;
25824;SDS011;13658;44.534;18.694;2022-12-18T03:00:07;41.45;;;20.20;;
25824;SDS011;13658;44.534;18.694;2022-12-18T03:02:59;37.22;;;18.42;;
25824;SDS011;13658;44.534;18.694;2022-12-18T03:05:36;38.17;;;18.27;;
25824;SDS011;13658;44.534;18.694;2022-12-18T03:08:11;42.65;;;19.40;;
25824;SDS011;13658;44.534;18.694;2022-12-18T03:10:45;40.58;;;18.27;;
25824;SDS011;13658;44.534;18.694;2022-12-18T03:13:19;39.95;;;18.65;;
25824;SDS011;13658;44.534;18.694;2022-12-18T03:16:07;35.53;;;17.40;;
25824;SDS011;13658;44.534;18.694;2022-12-18T03:18:42;32.22;;;16.10;;
25824;SDS011;13658;44.534;18.694;2022-12-18T03:21:15;32.42;;;16.90;;
25824;SDS011;13658;44.534;18.694;2022-12-18T03:23:49;37.78;;;17.73;;
25824;SDS011;13658;44.534;18.694;2022-12-18T03:26:21;39.85;;;19.73;;
25824;SDS011;13658;44.534;18.694;2022-12-18T03:28:54;36.72;;;18.40;;
25824;SDS011;13658;44.534;18.694;2022-12-18T03:31:25;39.95;;;20.17;;
25824;SDS011;13658;44.534;18.694;2022-12-18T03:34:00;42.05;;;19.35;;
25824;SDS011;13658;44.534;18.694;2022-12-18T03:36:37;38.42;;;20.23;;
25824;SDS011;13658;44.534;18.694;2022-12-18T03:39:03;35.03;;;17.20;;
25824;SDS011;13658;44.534;18.694;2022-12-18T03:41:43;36.35;;;18.20;;
25824;SDS011;13658;44.534;18.694;2022-12-18T03:44:36;33.63;;;16.77;;
25824;SDS011;13658;44.534;18.694;2022-12-18T03:55:07;32.75;;;18.08;;
25824;SDS011;13658;44.534;18.694;2022-12-18T03:57:36;41.33;;;19.55;;
25824;SDS011;13658;44.534;18.694;2022-12-18T04:00:11;40.55;;;20.50;;
25824;SDS011;13658;44.534;18.694;2022-12-18T04:02:40;42.28;;;19.73;;
25824;SDS011;13658;44.534;18.694;2022-12-18T04:05:12;36.22;;;18.88;;
25824;SDS011;13658;44.534;18.694;2022-12-18T04:07:42;38.83;;;20.10;;
25824;SDS011;13658;44.534;18.694;2022-12-18T04:10:09;40.50;;;20.15;;
25824;SDS011;13658;44.534;18.694;2022-12-18T04:12:37;42.85;;;19.52;;
25824;SDS011;13658;44.534;18.694;2022-12-18T04:15:05;39.90;;;19.85;;
25824;SDS011;13658;44.534;18.694;2022-12-18T04:17:32;38.45;;;19.58;;
25824;SDS011;13658;44.534;18.694;2022-12-18T04:19:58;41.13;;;19.58;;
25824;SDS011;13658;44.534;18.694;2022-12-18T04:22:24;40.70;;;19.08;;
25824;SDS011;13658;44.534;18.694;2022-12-18T04:24:56;42.58;;;20.58;;
25824;SDS011;13658;44.534;18.694;2022-12-18T04:27:29;39.60;;;19.95;;
25824;SDS011;13658;44.534;18.694;2022-12-18T04:29:56;37.88;;;19.65;;
25824;SDS011;13658;44.534;18.694;2022-12-18T04:32:22;42.45;;;20.30;;
25824;SDS011;13658;44.534;18.694;2022-12-18T04:34:48;42.50;;;20.00;;
25824;SDS011;13658;44.534;18.694;2022-12-18T04:37:14;39.97;;;20.50;;
25824;SDS011;13658;44.534;18.694;2022-12-18T04:39:41;43.00;;;20.40;;
25824;SDS011;13658;44.534;18.694;2022-12-18T04:42:14;40.13;;;19.35;;
25824;SDS011;13658;44.534;18.694;2022-12-18T04:44:40;43.08;;;21.20;;
25824;SDS011;13658;44.534;18.694;2022-12-18T04:47:06;42.38;;;20.17;;
25824;SDS011;13658;44.534;18.694;2022-12-18T04:49:35;45.30;;;20.33;;
25824;SDS011;13658;44.534;18.694;2022-12-18T04:52:01;43.38;;;20.13;;
25824;SDS011;13658;44.534;18.694;2022-12-18T04:54:27;38.00;;;18.70;;
25824;SDS011;13658;44.534;18.694;2022-12-18T04:56:53;41.92;;;20.65;;
25824;SDS011;13658;44.534;18.694;2022-12-18T04:59:19;37.65;;;18.52;;
25824;SDS011;13658;44.534;18.694;2022-12-18T05:01:45;38.63;;;20.88;;
25824;SDS011;13658;44.534;18.694;2022-12-18T05:04:11;40.53;;;19.08;;
25824;SDS011;13658;44.534;18.694;2022-12-18T05:06:37;36.55;;;17.10;;
25824;SDS011;13658;44.534;18.694;2022-12-18T05:09:03;38.55;;;18.33;;
25824;SDS011;13658;44.534;18.694;2022-12-18T05:11:29;33.60;;;16.83;;
25824;SDS011;13658;44.534;18.694;2022-12-18T05:13:55;41.00;;;18.58;;
25824;SDS011;13658;44.534;18.694;2022-12-18T05:16:21;36.75;;;18.17;;
25824;SDS011;13658;44.534;18.694;2022-12-18T05:18:47;35.42;;;17.63;;
25824;SDS011;13658;44.534;18.694;2022-12-18T05:21:13;37.92;;;16.40;;
25824;SDS011;13658;44.534;18.694;2022-12-18T05:23:39;34.33;;;16.58;;
25824;SDS011;13658;44.534;18.694;2022-12-18T05:26:05;32.67;;;16.90;;
25824;SDS011;13658;44.534;18.694;2022-12-18T05:28:33;33.03;;;16.60;;
25824;SDS011;13658;44.534;18.694;2022-12-18T05:31:02;27.30;;;14.38;;
25824;SDS011;13658;44.534;18.694;2022-12-18T05:33:30;25.00;;;13.50;;
25824;SDS011;13658;44.534;18.694;2022-12-18T05:35:58;29.17;;;13.88;;
25824;SDS011;13658;44.534;18.694;2022-12-18T05:38:29;28.92;;;14.45;;
25824;SDS011;13658;44.534;18.694;2022-12-18T05:40:57;26.65;;;14.75;;
25824;SDS011;13658;44.534;18.694;2022-12-18T05:43:24;28.83;;;14.15;;
25824;SDS011;13658;44.534;18.694;2022-12-18T05:45:51;29.50;;;14.43;;
25824;SDS011;13658;44.534;18.694;2022-12-18T05:48:18;26.67;;;13.57;;
25824;SDS011;13658;44.534;18.694;2022-12-18T05:50:45;27.65;;;13.52;;
25824;SDS011;13658;44.534;18.694;2022-12-18T05:53:12;28.15;;;14.05;;
25824;SDS011;13658;44.534;18.694;2022-12-18T05:55:43;25.27;;;12.95;;
25824;SDS011;13658;44.534;18.694;2022-12-18T05:58:10;25.95;;;13.98;;
25824;SDS011;13658;44.534;18.694;2022-12-18T06:00:38;27.70;;;13.18;;
25824;SDS011;13658;44.534;18.694;2022-12-18T06:03:06;25.45;;;12.93;;
25824;SDS011;13658;44.534;18.694;2022-12-18T06:05:36;27.40;;;13.55;;
25824;SDS011;13658;44.534;18.694;2022-12-18T06:08:06;27.40;;;13.68;;
25824;SDS011;13658;44.534;18.694;2022-12-18T06:10:33;28.08;;;15.07;;
25824;SDS011;13658;44.534;18.694;2022-12-18T06:12:59;28.63;;;14.60;;
25824;SDS011;13658;44.534;18.694;2022-12-18T06:15:25;27.52;;;14.18;;
25824;SDS011;13658;44.534;18.694;2022-12-18T06:17:51;30.85;;;15.32;;
25824;SDS011;13658;44.534;18.694;2022-12-18T06:20:17;30.70;;;15.35;;
25824;SDS011;13658;44.534;18.694;2022-12-18T06:22:43;34.13;;;17.85;;
25824;SDS011;13658;44.534;18.694;2022-12-18T06:25:09;38.80;;;17.48;;
25824;SDS011;13658;44.534;18.694;2022-12-18T06:27:35;35.35;;;17.52;;
25824;SDS011;13658;44.534;18.694;2022-12-18T06:30:02;34.63;;;17.42;;
25824;SDS011;13658;44.534;18.694;2022-12-18T06:32:28;34.65;;;18.08;;
25824;SDS011;13658;44.534;18.694;2022-12-18T06:34:54;37.15;;;17.48;;
25824;SDS011;13658;44.534;18.694;2022-12-18T06:37:21;33.42;;;16.48;;
25824;SDS011;13658;44.534;18.694;2022-12-18T06:39:51;34.30;;;16.85;;
25824;SDS011;13658;44.534;18.694;2022-12-18T06:42:18;31.85;;;16.00;;
25824;SDS011;13658;44.534;18.694;2022-12-18T06:44:47;37.95;;;16.73;;
25824;SDS011;13658;44.534;18.694;2022-12-18T06:47:13;32.85;;;16.48;;
25824;SDS011;13658;44.534;18.694;2022-12-18T06:49:39;35.83;;;16.73;;
25824;SDS011;13658;44.534;18.694;2022-12-18T06:52:05;37.03;;;17.63;;
25824;SDS011;13658;44.534;18.694;2022-12-18T06:54:31;33.58;;;16.50;;
25824;SDS011;13658;44.534;18.694;2022-12-18T06:56:57;38.80;;;18.08;;
25824;SDS011;13658;44.534;18.694;2022-12-18T06:59:23;36.95;;;18.10;;
25824;SDS011;13658;44.534;18.694;2022-12-18T07:01:58;39.53;;;17.95;;
25824;SDS011;13658;44.534;18.694;2022-12-18T07:04:27;33.15;;;16.42;;
25824;SDS011;13658;44.534;18.694;2022-12-18T07:06:54;39.65;;;18.33;;
25824;SDS011;13658;44.534;18.694;2022-12-18T07:09:20;38.53;;;18.02;;
25824;SDS011;13658;44.534;18.694;2022-12-18T07:11:46;37.92;;;17.88;;
25824;SDS011;13658;44.534;18.694;2022-12-18T07:14:12;34.38;;;16.98;;
25824;SDS011;13658;44.534;18.694;2022-12-18T07:16:38;36.85;;;18.38;;
25824;SDS011;13658;44.534;18.694;2022-12-18T07:19:04;43.38;;;20.38;;
25824;SDS011;13658;44.534;18.694;2022-12-18T07:21:30;39.22;;;19.48;;
25824;SDS011;13658;44.534;18.694;2022-12-18T07:23:56;36.83;;;17.95;;
25824;SDS011;13658;44.534;18.694;2022-12-18T07:26:22;37.35;;;18.85;;
25824;SDS011;13658;44.534;18.694;2022-12-18T07:28:48;42.65;;;19.52;;
25824;SDS011;13658;44.534;18.694;2022-12-18T07:31:16;39.95;;;19.95;;
25824;SDS011;13658;44.534;18.694;2022-12-18T07:33:44;44.95;;;21.55;;
25824;SDS011;13658;44.534;18.694;2022-12-18T07:36:11;42.95;;;21.85;;
25824;SDS011;13658;44.534;18.694;2022-12-18T07:38:37;42.22;;;21.02;;
25824;SDS011;13658;44.534;18.694;2022-12-18T07:41:04;52.20;;;21.98;;
25824;SDS011;13658;44.534;18.694;2022-12-18T07:43:35;46.97;;;22.95;;
25824;SDS011;13658;44.534;18.694;2022-12-18T07:46:01;52.35;;;23.27;;
25824;SDS011;13658;44.534;18.694;2022-12-18T07:48:28;42.72;;;20.80;;
25824;SDS011;13658;44.534;18.694;2022-12-18T07:51:01;45.40;;;23.85;;
25824;SDS011;13658;44.534;18.694;2022-12-18T07:53:29;49.03;;;22.27;;
25824;SDS011;13658;44.534;18.694;2022-12-18T07:55:56;46.53;;;22.33;;
25824;SDS011;13658;44.534;18.694;2022-12-18T07:58:23;49.17;;;24.00;;
25824;SDS011;13658;44.534;18.694;2022-12-18T08:00:49;54.15;;;24.77;;
25824;SDS011;13658;44.534;18.694;2022-12-18T08:03:16;49.13;;;24.83;;
25824;SDS011;13658;44.534;18.694;2022-12-18T08:05:42;60.95;;;25.13;;
25824;SDS011;13658;44.534;18.694;2022-12-18T08:08:07;47.92;;;23.60;;
25824;SDS011;13658;44.534;18.694;2022-12-18T08:10:33;46.67;;;22.45;;
25824;SDS011;13658;44.534;18.694;2022-12-18T08:12:59;48.53;;;22.10;;
25824;SDS011;13658;44.534;18.694;2022-12-18T08:15:25;51.33;;;24.63;;
25824;SDS011;13658;44.534;18.694;2022-12-18T08:17:51;56.22;;;28.23;;
25824;SDS011;13658;44.534;18.694;2022-12-18T08:20:17;65.53;;;31.58;;
25824;SDS011;13658;44.534;18.694;2022-12-18T08:22:43;49.90;;;25.17;;
25824;SDS011;13658;44.534;18.694;2022-12-18T08:25:09;65.07;;;30.70;;
25824;SDS011;13658;44.534;18.694;2022-12-18T08:27:36;65.97;;;33.38;;
25824;SDS011;13658;44.534;18.694;2022-12-18T08:30:02;57.72;;;29.48;;
25824;SDS011;13658;44.534;18.694;2022-12-18T08:32:29;58.97;;;31.30;;
25824;SDS011;13658;44.534;18.694;2022-12-18T08:34:55;51.58;;;28.40;;
25824;SDS011;13658;44.534;18.694;2022-12-18T08:37:21;62.15;;;33.25;;
25824;SDS011;13658;44.534;18.694;2022-12-18T08:39:47;73.25;;;40.78;;
25824;SDS011;13658;44.534;18.694;2022-12-18T08:42:13;75.72;;;43.92;;
25824;SDS011;13658;44.534;18.694;2022-12-18T08:44:57;42.20;;;24.85;;
25824;SDS011;13658;44.534;18.694;2022-12-18T08:47:23;47.83;;;25.23;;
25824;SDS011;13658;44.534;18.694;2022-12-18T08:49:51;45.67;;;25.77;;
25824;SDS011;13658;44.534;18.694;2022-12-18T08:52:17;35.08;;;20.95;;
25824;SDS011;13658;44.534;18.694;2022-12-18T08:54:43;27.77;;;16.77;;
25824;SDS011;13658;44.534;18.694;2022-12-18T08:57:08;27.02;;;15.43;;
25824;SDS011;13658;44.534;18.694;2022-12-18T08:59:34;29.70;;;17.08;;
25824;SDS011;13658;44.534;18.694;2022-12-18T09:02:00;32.25;;;18.75;;
25824;SDS011;13658;44.534;18.694;2022-12-18T09:04:26;24.85;;;15.38;;
25824;SDS011;13658;44.534;18.694;2022-12-18T09:06:55;25.42;;;16.38;;
25824;SDS011;13658;44.534;18.694;2022-12-18T09:09:21;36.15;;;20.92;;
25824;SDS011;13658;44.534;18.694;2022-12-18T09:11:47;32.53;;;19.42;;
25824;SDS011;13658;44.534;18.694;2022-12-18T09:14:13;35.38;;;21.52;;
25824;SDS011;13658;44.534;18.694;2022-12-18T09:16:39;40.78;;;22.33;;
25824;SDS011;13658;44.534;18.694;2022-12-18T09:19:05;34.22;;;21.10;;
25824;SDS011;13658;44.534;18.694;2022-12-18T09:21:31;33.13;;;20.73;;
25824;SDS011;13658;44.534;18.694;2022-12-18T09:23:59;34.70;;;21.73;;
25824;SDS011;13658;44.534;18.694;2022-12-18T09:26:26;53.63;;;35.85;;
25824;SDS011;13658;44.534;18.694;2022-12-18T09:28:52;49.42;;;32.75;;
25824;SDS011;13658;44.534;18.694;2022-12-18T09:31:19;44.95;;;28.65;;
25824;SDS011;13658;44.534;18.694;2022-12-18T09:33:46;49.58;;;31.10;;
25824;SDS011;13658;44.534;18.694;2022-12-18T09:36:13;42.28;;;28.77;;
25824;SDS011;13658;44.534;18.694;2022-12-18T09:38:40;46.75;;;29.85;;
25824;SDS011;13658;44.534;18.694;2022-12-18T09:41:19;46.25;;;29.00;;
25824;SDS011;13658;44.534;18.694;2022-12-18T09:46:29;39.60;;;25.80;;
25824;SDS011;13658;44.534;18.694;2022-12-18T09:49:00;45.05;;;29.70;;
25824;SDS011;13658;44.534;18.694;2022-12-18T09:51:32;53.45;;;32.92;;
25824;SDS011;13658;44.534;18.694;2022-12-18T09:54:07;55.78;;;34.15;;
25824;SDS011;13658;44.534;18.694;2022-12-18T09:56:40;54.75;;;32.85;;
25824;SDS011;13658;44.534;18.694;2022-12-18T09:59:14;56.40;;;33.00;;
25824;SDS011;13658;44.534;18.694;2022-12-18T10:01:46;56.58;;;31.33;;
25824;SDS011;13658;44.534;18.694;2022-12-18T10:04:12;55.38;;;31.02;;
25824;SDS011;13658;44.534;18.694;2022-12-18T10:06:43;53.45;;;29.15;;
25824;SDS011;13658;44.534;18.694;2022-12-18T10:14:25;50.80;;;27.23;;
25824;SDS011;13658;44.534;18.694;2022-12-18T10:17:39;51.33;;;27.00;;
25824;SDS011;13658;44.534;18.694;2022-12-18T10:23:15;53.63;;;28.35;;
25824;SDS011;13658;44.534;18.694;2022-12-18T10:26:04;57.65;;;30.80;;
25824;SDS011;13658;44.534;18.694;2022-12-18T10:28:33;58.85;;;31.42;;
25824;SDS011;13658;44.534;18.694;2022-12-18T10:31:17;56.92;;;29.27;;
25824;SDS011;13658;44.534;18.694;2022-12-18T10:33:45;57.60;;;28.58;;
25824;SDS011;13658;44.534;18.694;2022-12-18T10:36:12;52.72;;;27.85;;
25824;SDS011;13658;44.534;18.694;2022-12-18T10:38:40;48.70;;;25.13;;
25824;SDS011;13658;44.534;18.694;2022-12-18T10:41:22;47.25;;;24.83;;
25824;SDS011;13658;44.534;18.694;2022-12-18T10:44:11;44.42;;;22.23;;
25824;SDS011;13658;44.534;18.694;2022-12-18T10:46:46;43.83;;;22.23;;
25824;SDS011;13658;44.534;18.694;2022-12-18T10:49:18;40.78;;;21.42;;
25824;SDS011;13658;44.534;18.694;2022-12-18T10:51:47;42.05;;;21.23;;
25824;SDS011;13658;44.534;18.694;2022-12-18T10:56:49;32.97;;;16.70;;
25824;SDS011;13658;44.534;18.694;2022-12-18T10:59:16;34.90;;;18.70;;
25824;SDS011;13658;44.534;18.694;2022-12-18T11:01:47;36.75;;;18.50;;
25824;SDS011;13658;44.534;18.694;2022-12-18T11:04:19;33.85;;;18.38;;
25824;SDS011;13658;44.534;18.694;2022-12-18T11:06:59;44.15;;;20.20;;
25824;SDS011;13658;44.534;18.694;2022-12-18T11:12:04;37.67;;;18.90;;
25824;SDS011;13658;44.534;18.694;2022-12-18T11:14:47;43.17;;;22.52;;
25824;SDS011;13658;44.534;18.694;2022-12-18T11:17:25;44.38;;;23.38;;
25824;SDS011;13658;44.534;18.694;2022-12-18T11:19:57;44.05;;;22.60;;
25824;SDS011;13658;44.534;18.694;2022-12-18T11:22:28;41.80;;;22.25;;
25824;SDS011;13658;44.534;18.694;2022-12-18T11:25:04;38.25;;;21.05;;
25824;SDS011;13658;44.534;18.694;2022-12-18T11:27:37;35.42;;;18.50;;
25824;SDS011;13658;44.534;18.694;2022-12-18T11:30:20;36.53;;;18.85;;
25824;SDS011;13658;44.534;18.694;2022-12-18T11:41:00;28.90;;;15.98;;
25824;SDS011;13658;44.534;18.694;2022-12-18T11:43:29;33.55;;;17.45;;
25824;SDS011;13658;44.534;18.694;2022-12-18T11:46:08;34.38;;;16.65;;
25824;SDS011;13658;44.534;18.694;2022-12-18T11:51:33;30.45;;;15.13;;
25824;SDS011;13658;44.534;18.694;2022-12-18T11:56:44;32.45;;;16.00;;
25824;SDS011;13658;44.534;18.694;2022-12-18T12:10:57;31.23;;;14.70;;
25824;SDS011;13658;44.534;18.694;2022-12-18T12:39:01;27.02;;;13.65;;
25824;SDS011;13658;44.534;18.694;2022-12-18T12:41:32;24.95;;;12.65;;
25824;SDS011;13658;44.534;18.694;2022-12-18T12:44:32;24.15;;;11.57;;
25824;SDS011;13658;44.534;18.694;2022-12-18T12:47:09;25.60;;;13.50;;
25824;SDS011;13658;44.534;18.694;2022-12-18T12:49:41;28.88;;;14.05;;
25824;SDS011;13658;44.534;18.694;2022-12-18T12:52:57;26.42;;;14.07;;
25824;SDS011;13658;44.534;18.694;2022-12-18T12:55:02;29.50;;;14.40;;
25824;SDS011;13658;44.534;18.694;2022-12-18T12:57:37;30.80;;;15.32;;
25824;SDS011;13658;44.534;18.694;2022-12-18T13:00:11;27.88;;;13.98;;
25824;SDS011;13658;44.534;18.694;2022-12-18T13:02:50;27.73;;;14.65;;
25824;SDS011;13658;44.534;18.694;2022-12-18T13:05:46;28.75;;;14.10;;
25824;SDS011;13658;44.534;18.694;2022-12-18T13:08:28;37.95;;;18.10;;
25824;SDS011;13658;44.534;18.694;2022-12-18T13:10:57;44.80;;;21.27;;
25824;SDS011;13658;44.534;18.694;2022-12-18T13:13:49;34.28;;;16.60;;
25824;SDS011;13658;44.534;18.694;2022-12-18T13:16:20;32.28;;;17.17;;
25824;SDS011;13658;44.534;18.694;2022-12-18T13:18:57;35.38;;;17.40;;
25824;SDS011;13658;44.534;18.694;2022-12-18T13:21:33;36.53;;;18.40;;
25824;SDS011;13658;44.534;18.694;2022-12-18T13:26:56;42.33;;;20.00;;
25824;SDS011;13658;44.534;18.694;2022-12-18T13:29:41;43.90;;;21.25;;
25824;SDS011;13658;44.534;18.694;2022-12-18T13:32:24;42.88;;;21.05;;
25824;SDS011;13658;44.534;18.694;2022-12-18T13:35:36;42.80;;;19.70;;
25824;SDS011;13658;44.534;18.694;2022-12-18T13:37:52;47.15;;;21.73;;
25824;SDS011;13658;44.534;18.694;2022-12-18T13:40:50;47.85;;;22.35;;
25824;SDS011;13658;44.534;18.694;2022-12-18T13:46:02;55.78;;;26.38;;
25824;SDS011;13658;44.534;18.694;2022-12-18T13:48:35;50.28;;;23.50;;
25824;SDS011;13658;44.534;18.694;2022-12-18T13:56:08;49.75;;;23.58;;
25824;SDS011;13658;44.534;18.694;2022-12-18T13:58:36;45.33;;;22.73;;
25824;SDS011;13658;44.534;18.694;2022-12-18T14:01:02;42.78;;;22.23;;
25824;SDS011;13658;44.534;18.694;2022-12-18T14:03:30;50.33;;;25.10;;
25824;SDS011;13658;44.534;18.694;2022-12-18T14:05:57;51.92;;;25.75;;
25824;SDS011;13658;44.534;18.694;2022-12-18T14:08:27;52.25;;;26.25;;
25824;SDS011;13658;44.534;18.694;2022-12-18T14:11:00;47.33;;;25.33;;
25824;SDS011;13658;44.534;18.694;2022-12-18T14:13:29;49.38;;;25.45;;
25824;SDS011;13658;44.534;18.694;2022-12-18T14:16:00;56.55;;;28.13;;
25824;SDS011;13658;44.534;18.694;2022-12-18T14:18:44;52.13;;;26.70;;
25824;SDS011;13658;44.534;18.694;2022-12-18T14:21:25;75.43;;;36.88;;
25824;SDS011;13658;44.534;18.694;2022-12-18T14:26:34;102.07;;;51.13;;
25824;SDS011;13658;44.534;18.694;2022-12-18T14:29:01;92.60;;;47.05;;
25824;SDS011;13658;44.534;18.694;2022-12-18T14:31:44;84.55;;;39.97;;
25824;SDS011;13658;44.534;18.694;2022-12-18T14:34:16;65.22;;;32.50;;
25824;SDS011;13658;44.534;18.694;2022-12-18T14:36:52;57.97;;;26.45;;
25824;SDS011;13658;44.534;18.694;2022-12-18T14:39:19;67.82;;;30.90;;
25824;SDS011;13658;44.534;18.694;2022-12-18T14:41:45;110.88;;;48.25;;
25824;SDS011;13658;44.534;18.694;2022-12-18T14:44:13;62.00;;;31.33;;
25824;SDS011;13658;44.534;18.694;2022-12-18T14:46:39;71.35;;;32.38;;
25824;SDS011;13658;44.534;18.694;2022-12-18T14:49:21;58.33;;;28.40;;
25824;SDS011;13658;44.534;18.694;2022-12-18T14:51:55;81.15;;;39.17;;
25824;SDS011;13658;44.534;18.694;2022-12-18T14:54:39;58.15;;;27.92;;
25824;SDS011;13658;44.534;18.694;2022-12-18T14:59:51;77.80;;;36.70;;
25824;SDS011;13658;44.534;18.694;2022-12-18T15:04:47;63.75;;;29.85;;
25824;SDS011;13658;44.534;18.694;2022-12-18T15:07:24;72.78;;;34.15;;
25824;SDS011;13658;44.534;18.694;2022-12-18T15:10:08;81.30;;;34.88;;
25824;SDS011;13658;44.534;18.694;2022-12-18T15:12:41;73.93;;;34.92;;
25824;SDS011;13658;44.534;18.694;2022-12-18T15:20:45;61.88;;;30.30;;
25824;SDS011;13658;44.534;18.694;2022-12-18T15:23:23;117.18;;;50.80;;
25824;SDS011;13658;44.534;18.694;2022-12-18T15:25:56;63.95;;;30.80;;
25824;SDS011;13658;44.534;18.694;2022-12-18T15:28:33;103.05;;;47.47;;
25824;SDS011;13658;44.534;18.694;2022-12-18T15:31:24;73.22;;;34.22;;
25824;SDS011;13658;44.534;18.694;2022-12-18T15:34:10;68.95;;;32.35;;
25824;SDS011;13658;44.534;18.694;2022-12-18T15:36:38;87.57;;;40.75;;
25824;SDS011;13658;44.534;18.694;2022-12-18T15:39:05;97.65;;;44.97;;
25824;SDS011;13658;44.534;18.694;2022-12-18T15:41:38;78.00;;;36.10;;
25824;SDS011;13658;44.534;18.694;2022-12-18T15:47:02;81.05;;;37.97;;
25824;SDS011;13658;44.534;18.694;2022-12-18T15:49:32;94.13;;;42.42;;
25824;SDS011;13658;44.534;18.694;2022-12-18T15:51:59;98.40;;;43.30;;
25824;SDS011;13658;44.534;18.694;2022-12-18T15:54:31;97.97;;;44.72;;
25824;SDS011;13658;44.534;18.694;2022-12-18T15:57:15;100.60;;;45.25;;
25824;SDS011;13658;44.534;18.694;2022-12-18T15:59:51;98.10;;;44.70;;
25824;SDS011;13658;44.534;18.694;2022-12-18T16:02:20;101.88;;;46.70;;
25824;SDS011;13658;44.534;18.694;2022-12-18T16:04:50;103.03;;;46.80;;
25824;SDS011;13658;44.534;18.694;2022-12-18T16:07:17;111.20;;;48.75;;
25824;SDS011;13658;44.534;18.694;2022-12-18T16:09:43;121.50;;;55.75;;
25824;SDS011;13658;44.534;18.694;2022-12-18T16:12:16;126.70;;;55.80;;
25824;SDS011;13658;44.534;18.694;2022-12-18T16:14:54;151.77;;;60.97;;
25824;SDS011;13658;44.534;18.694;2022-12-18T16:17:25;158.13;;;67.47;;
25824;SDS011;13658;44.534;18.694;2022-12-18T16:19:53;157.25;;;66.38;;
25824;SDS011;13658;44.534;18.694;2022-12-18T16:22:22;158.02;;;66.90;;
25824;SDS011;13658;44.534;18.694;2022-12-18T16:24:53;210.95;;;90.22;;
25824;SDS011;13658;44.534;18.694;2022-12-18T16:27:23;234.23;;;100.43;;
25824;SDS011;13658;44.534;18.694;2022-12-18T16:29:49;146.07;;;65.40;;
25824;SDS011;13658;44.534;18.694;2022-12-18T16:32:19;178.23;;;75.68;;
25824;SDS011;13658;44.534;18.694;2022-12-18T16:34:47;156.95;;;71.90;;
25824;SDS011;13658;44.534;18.694;2022-12-18T16:37:14;172.57;;;76.00;;